sensor_id;sensor_type;location;lat;lon;timestamp;P1;durP1;ratioP1;P2;durP2;ratioP2
45688;SDS011;31400;48.132;20.872;2022-08-18T00:02:09;12.00;;;6.32;;
45688;SDS011;31400;48.132;20.872;2022-08-18T00:04:36;10.95;;;5.90;;
45688;SDS011;31400;48.132;20.872;2022-08-18T00:07:03;8.80;;;6.03;;
45688;SDS011;31400;48.132;20.872;2022-08-18T00:09:30;9.27;;;6.63;;
45688;SDS011;31400;48.132;20.872;2022-08-18T00:11:56;11.05;;;7.05;;
45688;SDS011;31400;48.132;20.872;2022-08-18T00:14:22;8.88;;;5.50;;
45688;SDS011;31400;48.132;20.872;2022-08-18T00:16:51;7.07;;;5.63;;
45688;SDS011;31400;48.132;20.872;2022-08-18T00:19:18;11.82;;;7.10;;
45688;SDS011;31400;48.132;20.872;2022-08-18T00:21:44;15.15;;;7.55;;
45688;SDS011;31400;48.132;20.872;2022-08-18T00:24:10;8.82;;;6.20;;
45688;SDS011;31400;48.132;20.872;2022-08-18T00:26:36;10.35;;;6.78;;
45688;SDS011;31400;48.132;20.872;2022-08-18T00:29:02;8.02;;;6.53;;
45688;SDS011;31400;48.132;20.872;2022-08-18T00:31:28;9.65;;;6.43;;
45688;SDS011;31400;48.132;20.872;2022-08-18T00:33:55;8.10;;;6.10;;
45688;SDS011;31400;48.132;20.872;2022-08-18T00:36:21;6.97;;;5.88;;
45688;SDS011;31400;48.132;20.872;2022-08-18T00:38:47;12.57;;;5.65;;
45688;SDS011;31400;48.132;20.872;2022-08-18T00:41:13;10.02;;;5.78;;
45688;SDS011;31400;48.132;20.872;2022-08-18T00:43:45;9.48;;;6.07;;
45688;SDS011;31400;48.132;20.872;2022-08-18T00:46:14;12.27;;;5.60;;
45688;SDS011;31400;48.132;20.872;2022-08-18T00:48:42;9.30;;;5.90;;
45688;SDS011;31400;48.132;20.872;2022-08-18T00:51:53;9.13;;;6.55;;
45688;SDS011;31400;48.132;20.872;2022-08-18T00:54:02;10.55;;;6.05;;
45688;SDS011;31400;48.132;20.872;2022-08-18T00:56:33;7.30;;;5.30;;
45688;SDS011;31400;48.132;20.872;2022-08-18T00:59:02;14.35;;;6.63;;
45688;SDS011;31400;48.132;20.872;2022-08-18T01:01:30;11.63;;;6.32;;
45688;SDS011;31400;48.132;20.872;2022-08-18T01:04:03;7.78;;;5.65;;
45688;SDS011;31400;48.132;20.872;2022-08-18T01:08:56;7.82;;;5.70;;
45688;SDS011;31400;48.132;20.872;2022-08-18T01:11:23;10.80;;;6.07;;
45688;SDS011;31400;48.132;20.872;2022-08-18T01:13:49;8.88;;;5.50;;
45688;SDS011;31400;48.132;20.872;2022-08-18T01:16:16;8.27;;;5.40;;
45688;SDS011;31400;48.132;20.872;2022-08-18T01:19:02;12.35;;;5.90;;
45688;SDS011;31400;48.132;20.872;2022-08-18T01:21:48;8.10;;;5.88;;
45688;SDS011;31400;48.132;20.872;2022-08-18T01:24:16;8.40;;;5.68;;
45688;SDS011;31400;48.132;20.872;2022-08-18T01:26:44;8.75;;;6.28;;
45688;SDS011;31400;48.132;20.872;2022-08-18T01:29:14;10.32;;;5.70;;
45688;SDS011;31400;48.132;20.872;2022-08-18T01:31:46;10.35;;;6.32;;
45688;SDS011;31400;48.132;20.872;2022-08-18T01:34:14;8.55;;;6.43;;
45688;SDS011;31400;48.132;20.872;2022-08-18T01:36:40;12.93;;;6.43;;
45688;SDS011;31400;48.132;20.872;2022-08-18T01:39:09;11.00;;;6.97;;
45688;SDS011;31400;48.132;20.872;2022-08-18T01:41:35;10.00;;;5.57;;
45688;SDS011;31400;48.132;20.872;2022-08-18T01:44:01;9.45;;;6.45;;
45688;SDS011;31400;48.132;20.872;2022-08-18T01:46:28;9.77;;;6.47;;
45688;SDS011;31400;48.132;20.872;2022-08-18T01:48:54;12.40;;;6.88;;
45688;SDS011;31400;48.132;20.872;2022-08-18T01:51:22;9.60;;;7.00;;
45688;SDS011;31400;48.132;20.872;2022-08-18T01:53:48;12.38;;;6.68;;
45688;SDS011;31400;48.132;20.872;2022-08-18T01:58:43;12.13;;;6.70;;
45688;SDS011;31400;48.132;20.872;2022-08-18T02:01:11;8.77;;;5.60;;
45688;SDS011;31400;48.132;20.872;2022-08-18T02:03:38;13.80;;;7.70;;
45688;SDS011;31400;48.132;20.872;2022-08-18T02:06:08;12.65;;;6.72;;
45688;SDS011;31400;48.132;20.872;2022-08-18T02:08:35;10.00;;;6.85;;
45688;SDS011;31400;48.132;20.872;2022-08-18T02:11:01;9.65;;;6.75;;
45688;SDS011;31400;48.132;20.872;2022-08-18T02:13:27;8.98;;;6.55;;
45688;SDS011;31400;48.132;20.872;2022-08-18T02:15:54;8.48;;;6.40;;
45688;SDS011;31400;48.132;20.872;2022-08-18T02:20:46;9.95;;;7.30;;
45688;SDS011;31400;48.132;20.872;2022-08-18T02:23:12;9.18;;;7.20;;
45688;SDS011;31400;48.132;20.872;2022-08-18T02:25:40;8.95;;;6.88;;
45688;SDS011;31400;48.132;20.872;2022-08-18T02:28:07;10.63;;;6.85;;
45688;SDS011;31400;48.132;20.872;2022-08-18T02:32:59;9.68;;;7.13;;
45688;SDS011;31400;48.132;20.872;2022-08-18T02:35:25;8.82;;;6.50;;
45688;SDS011;31400;48.132;20.872;2022-08-18T02:37:51;12.88;;;8.05;;
45688;SDS011;31400;48.132;20.872;2022-08-18T02:42:44;12.73;;;7.05;;
45688;SDS011;31400;48.132;20.872;2022-08-18T02:45:10;10.20;;;7.57;;
45688;SDS011;31400;48.132;20.872;2022-08-18T02:47:37;11.85;;;6.90;;
45688;SDS011;31400;48.132;20.872;2022-08-18T02:50:04;15.55;;;8.73;;
45688;SDS011;31400;48.132;20.872;2022-08-18T02:52:30;14.85;;;7.40;;
45688;SDS011;31400;48.132;20.872;2022-08-18T02:54:57;9.98;;;7.18;;
45688;SDS011;31400;48.132;20.872;2022-08-18T02:57:25;18.40;;;7.45;;
45688;SDS011;31400;48.132;20.872;2022-08-18T02:59:52;15.80;;;8.00;;
45688;SDS011;31400;48.132;20.872;2022-08-18T03:02:18;9.93;;;6.95;;
45688;SDS011;31400;48.132;20.872;2022-08-18T03:04:44;16.65;;;8.05;;
45688;SDS011;31400;48.132;20.872;2022-08-18T03:07:11;11.43;;;8.00;;
45688;SDS011;31400;48.132;20.872;2022-08-18T03:09:39;10.95;;;7.30;;
45688;SDS011;31400;48.132;20.872;2022-08-18T03:12:05;10.20;;;7.13;;
45688;SDS011;31400;48.132;20.872;2022-08-18T03:14:31;9.98;;;7.82;;
45688;SDS011;31400;48.132;20.872;2022-08-18T03:16:57;10.82;;;6.80;;
45688;SDS011;31400;48.132;20.872;2022-08-18T03:19:25;11.57;;;6.38;;
45688;SDS011;31400;48.132;20.872;2022-08-18T03:21:52;11.82;;;7.72;;
45688;SDS011;31400;48.132;20.872;2022-08-18T03:24:20;10.55;;;7.53;;
45688;SDS011;31400;48.132;20.872;2022-08-18T03:26:46;12.93;;;7.32;;
45688;SDS011;31400;48.132;20.872;2022-08-18T03:29:12;11.30;;;8.07;;
45688;SDS011;31400;48.132;20.872;2022-08-18T03:31:40;14.10;;;7.70;;
45688;SDS011;31400;48.132;20.872;2022-08-18T03:34:07;10.68;;;7.78;;
45688;SDS011;31400;48.132;20.872;2022-08-18T03:39:06;16.43;;;10.10;;
45688;SDS011;31400;48.132;20.872;2022-08-18T03:41:33;12.75;;;8.35;;
45688;SDS011;31400;48.132;20.872;2022-08-18T03:44:00;10.95;;;8.23;;
45688;SDS011;31400;48.132;20.872;2022-08-18T03:46:27;11.63;;;7.68;;
45688;SDS011;31400;48.132;20.872;2022-08-18T03:48:54;15.55;;;7.95;;
45688;SDS011;31400;48.132;20.872;2022-08-18T03:51:23;12.30;;;7.50;;
45688;SDS011;31400;48.132;20.872;2022-08-18T03:53:49;10.10;;;7.88;;
45688;SDS011;31400;48.132;20.872;2022-08-18T03:56:21;11.40;;;7.25;;
45688;SDS011;31400;48.132;20.872;2022-08-18T03:58:48;17.52;;;7.53;;
45688;SDS011;31400;48.132;20.872;2022-08-18T04:01:16;14.82;;;9.48;;
45688;SDS011;31400;48.132;20.872;2022-08-18T04:03:46;10.15;;;7.25;;
45688;SDS011;31400;48.132;20.872;2022-08-18T04:06:15;11.77;;;8.38;;
45688;SDS011;31400;48.132;20.872;2022-08-18T04:08:42;10.30;;;6.93;;
45688;SDS011;31400;48.132;20.872;2022-08-18T04:11:11;12.23;;;7.47;;
45688;SDS011;31400;48.132;20.872;2022-08-18T04:13:38;12.57;;;7.80;;
45688;SDS011;31400;48.132;20.872;2022-08-18T04:16:04;13.75;;;7.70;;
45688;SDS011;31400;48.132;20.872;2022-08-18T04:18:30;12.32;;;7.00;;
45688;SDS011;31400;48.132;20.872;2022-08-18T04:21:00;11.25;;;7.88;;
45688;SDS011;31400;48.132;20.872;2022-08-18T04:23:27;10.38;;;7.05;;
45688;SDS011;31400;48.132;20.872;2022-08-18T04:25:56;11.48;;;8.10;;
45688;SDS011;31400;48.132;20.872;2022-08-18T04:28:23;12.85;;;7.97;;
45688;SDS011;31400;48.132;20.872;2022-08-18T04:30:49;14.05;;;8.02;;
45688;SDS011;31400;48.132;20.872;2022-08-18T04:35:41;13.02;;;8.35;;
45688;SDS011;31400;48.132;20.872;2022-08-18T04:38:08;10.77;;;7.60;;
45688;SDS011;31400;48.132;20.872;2022-08-18T04:40:35;13.82;;;7.57;;
45688;SDS011;31400;48.132;20.872;2022-08-18T04:43:01;11.98;;;7.28;;
45688;SDS011;31400;48.132;20.872;2022-08-18T04:45:27;10.93;;;7.47;;
45688;SDS011;31400;48.132;20.872;2022-08-18T04:47:53;11.57;;;8.48;;
45688;SDS011;31400;48.132;20.872;2022-08-18T04:50:20;13.13;;;8.13;;
45688;SDS011;31400;48.132;20.872;2022-08-18T04:52:48;14.60;;;7.78;;
45688;SDS011;31400;48.132;20.872;2022-08-18T04:55:33;15.60;;;8.38;;
45688;SDS011;31400;48.132;20.872;2022-08-18T04:57:59;9.52;;;7.43;;
45688;SDS011;31400;48.132;20.872;2022-08-18T05:00:25;10.32;;;7.60;;
45688;SDS011;31400;48.132;20.872;2022-08-18T05:05:18;11.00;;;7.43;;
45688;SDS011;31400;48.132;20.872;2022-08-18T05:07:45;14.55;;;7.88;;
45688;SDS011;31400;48.132;20.872;2022-08-18T05:10:11;10.63;;;7.18;;
45688;SDS011;31400;48.132;20.872;2022-08-18T05:12:38;12.02;;;7.70;;
45688;SDS011;31400;48.132;20.872;2022-08-18T05:15:08;11.95;;;7.38;;
45688;SDS011;31400;48.132;20.872;2022-08-18T05:17:37;10.50;;;7.00;;
45688;SDS011;31400;48.132;20.872;2022-08-18T05:20:06;9.05;;;6.78;;
45688;SDS011;31400;48.132;20.872;2022-08-18T05:22:37;12.48;;;7.65;;
45688;SDS011;31400;48.132;20.872;2022-08-18T05:25:03;11.32;;;6.90;;
45688;SDS011;31400;48.132;20.872;2022-08-18T05:27:33;9.27;;;6.63;;
45688;SDS011;31400;48.132;20.872;2022-08-18T05:30:00;12.20;;;7.00;;
45688;SDS011;31400;48.132;20.872;2022-08-18T05:32:26;12.27;;;7.68;;
45688;SDS011;31400;48.132;20.872;2022-08-18T05:34:55;15.80;;;7.68;;
45688;SDS011;31400;48.132;20.872;2022-08-18T05:37:30;10.73;;;7.05;;
45688;SDS011;31400;48.132;20.872;2022-08-18T05:40:00;10.63;;;7.38;;
45688;SDS011;31400;48.132;20.872;2022-08-18T05:42:27;15.68;;;8.00;;
45688;SDS011;31400;48.132;20.872;2022-08-18T05:44:55;14.90;;;7.97;;
45688;SDS011;31400;48.132;20.872;2022-08-18T05:47:23;13.13;;;7.55;;
45688;SDS011;31400;48.132;20.872;2022-08-18T05:49:49;13.63;;;6.75;;
45688;SDS011;31400;48.132;20.872;2022-08-18T05:52:26;11.95;;;7.50;;
45688;SDS011;31400;48.132;20.872;2022-08-18T05:54:57;13.13;;;8.67;;
45688;SDS011;31400;48.132;20.872;2022-08-18T05:57:51;11.77;;;7.07;;
45688;SDS011;31400;48.132;20.872;2022-08-18T06:00:18;20.30;;;7.50;;
45688;SDS011;31400;48.132;20.872;2022-08-18T06:02:57;11.95;;;7.32;;
45688;SDS011;31400;48.132;20.872;2022-08-18T06:05:30;11.77;;;7.35;;
45688;SDS011;31400;48.132;20.872;2022-08-18T06:10:29;14.82;;;7.97;;
45688;SDS011;31400;48.132;20.872;2022-08-18T06:12:56;15.57;;;8.43;;
45688;SDS011;31400;48.132;20.872;2022-08-18T06:20:28;10.40;;;6.93;;
45688;SDS011;31400;48.132;20.872;2022-08-18T06:33:31;9.25;;;7.10;;
45688;SDS011;31400;48.132;20.872;2022-08-18T06:36:02;14.77;;;6.22;;
45688;SDS011;31400;48.132;20.872;2022-08-18T06:41:13;12.98;;;7.22;;
45688;SDS011;31400;48.132;20.872;2022-08-18T06:43:42;11.27;;;5.82;;
45688;SDS011;31400;48.132;20.872;2022-08-18T06:46:19;9.48;;;6.15;;
45688;SDS011;31400;48.132;20.872;2022-08-18T06:48:50;9.05;;;6.13;;
45688;SDS011;31400;48.132;20.872;2022-08-18T06:51:18;10.65;;;6.65;;
45688;SDS011;31400;48.132;20.872;2022-08-18T06:53:54;9.27;;;6.85;;
45688;SDS011;31400;48.132;20.872;2022-08-18T06:58:47;11.88;;;6.05;;
45688;SDS011;31400;48.132;20.872;2022-08-18T07:01:14;7.88;;;6.07;;
45688;SDS011;31400;48.132;20.872;2022-08-18T07:03:48;8.82;;;5.22;;
45688;SDS011;31400;48.132;20.872;2022-08-18T07:08:48;10.23;;;6.93;;
45688;SDS011;31400;48.132;20.872;2022-08-18T07:11:22;7.03;;;5.93;;
45688;SDS011;31400;48.132;20.872;2022-08-18T07:13:50;7.88;;;5.97;;
45688;SDS011;31400;48.132;20.872;2022-08-18T07:16:20;8.15;;;5.00;;
45688;SDS011;31400;48.132;20.872;2022-08-18T07:18:47;9.07;;;5.85;;
45688;SDS011;31400;48.132;20.872;2022-08-18T07:21:28;16.95;;;5.15;;
45688;SDS011;31400;48.132;20.872;2022-08-18T07:24:37;9.57;;;6.05;;
45688;SDS011;31400;48.132;20.872;2022-08-18T07:29:39;9.75;;;5.70;;
45688;SDS011;31400;48.132;20.872;2022-08-18T07:32:15;6.25;;;4.75;;
45688;SDS011;31400;48.132;20.872;2022-08-18T07:34:47;12.25;;;6.32;;
45688;SDS011;31400;48.132;20.872;2022-08-18T07:39:49;10.27;;;5.40;;
45688;SDS011;31400;48.132;20.872;2022-08-18T07:47:14;8.02;;;4.38;;
45688;SDS011;31400;48.132;20.872;2022-08-18T07:49:41;30.42;;;5.88;;
45688;SDS011;31400;48.132;20.872;2022-08-18T07:52:21;8.45;;;5.45;;
45688;SDS011;31400;48.132;20.872;2022-08-18T07:55:34;7.18;;;4.65;;
45688;SDS011;31400;48.132;20.872;2022-08-18T08:02:48;21.27;;;5.65;;
45688;SDS011;31400;48.132;20.872;2022-08-18T08:13:58;8.38;;;4.60;;
45688;SDS011;31400;48.132;20.872;2022-08-18T08:21:24;9.23;;;4.30;;
45688;SDS011;31400;48.132;20.872;2022-08-18T08:23:54;8.25;;;5.45;;
45688;SDS011;31400;48.132;20.872;2022-08-18T08:29:11;53.78;;;10.10;;
45688;SDS011;31400;48.132;20.872;2022-08-18T08:31:47;38.25;;;5.40;;
45688;SDS011;31400;48.132;20.872;2022-08-18T08:34:48;6.75;;;3.92;;
45688;SDS011;31400;48.132;20.872;2022-08-18T08:37:14;10.95;;;3.80;;
45688;SDS011;31400;48.132;20.872;2022-08-18T08:39:43;7.90;;;3.73;;
45688;SDS011;31400;48.132;20.872;2022-08-18T08:44:44;8.82;;;4.53;;
45688;SDS011;31400;48.132;20.872;2022-08-18T08:47:15;5.90;;;4.32;;
45688;SDS011;31400;48.132;20.872;2022-08-18T08:49:47;8.25;;;4.05;;
45688;SDS011;31400;48.132;20.872;2022-08-18T08:52:20;7.25;;;4.63;;
45688;SDS011;31400;48.132;20.872;2022-08-18T08:54:55;6.07;;;4.00;;
45688;SDS011;31400;48.132;20.872;2022-08-18T08:57:26;9.35;;;5.03;;
45688;SDS011;31400;48.132;20.872;2022-08-18T08:59:56;5.57;;;3.75;;
45688;SDS011;31400;48.132;20.872;2022-08-18T09:02:27;13.93;;;4.82;;
45688;SDS011;31400;48.132;20.872;2022-08-18T09:12:40;7.82;;;4.50;;
45688;SDS011;31400;48.132;20.872;2022-08-18T09:23:20;8.18;;;4.50;;
45688;SDS011;31400;48.132;20.872;2022-08-18T09:25:47;12.45;;;4.47;;
45688;SDS011;31400;48.132;20.872;2022-08-18T09:28:15;8.23;;;3.70;;
45688;SDS011;31400;48.132;20.872;2022-08-18T09:33:19;12.02;;;4.45;;
45688;SDS011;31400;48.132;20.872;2022-08-18T09:35:58;6.28;;;4.07;;
45688;SDS011;31400;48.132;20.872;2022-08-18T09:38:31;12.52;;;5.03;;
45688;SDS011;31400;48.132;20.872;2022-08-18T09:41:23;6.28;;;3.78;;
45688;SDS011;31400;48.132;20.872;2022-08-18T09:46:55;5.82;;;3.20;;
45688;SDS011;31400;48.132;20.872;2022-08-18T09:51:47;7.57;;;3.67;;
45688;SDS011;31400;48.132;20.872;2022-08-18T09:54:15;8.75;;;3.55;;
45688;SDS011;31400;48.132;20.872;2022-08-18T10:04:34;6.10;;;3.72;;
45688;SDS011;31400;48.132;20.872;2022-08-18T10:20:36;4.90;;;3.58;;
45688;SDS011;31400;48.132;20.872;2022-08-18T10:23:04;8.35;;;3.72;;
45688;SDS011;31400;48.132;20.872;2022-08-18T10:25:49;5.05;;;3.60;;
45688;SDS011;31400;48.132;20.872;2022-08-18T10:36:25;5.15;;;3.85;;
45688;SDS011;31400;48.132;20.872;2022-08-18T10:38:57;5.75;;;3.45;;
45688;SDS011;31400;48.132;20.872;2022-08-18T10:41:26;5.60;;;4.05;;
45688;SDS011;31400;48.132;20.872;2022-08-18T10:43:53;8.27;;;4.93;;
45688;SDS011;31400;48.132;20.872;2022-08-18T10:46:25;6.13;;;3.80;;
45688;SDS011;31400;48.132;20.872;2022-08-18T10:49:25;8.15;;;3.72;;
45688;SDS011;31400;48.132;20.872;2022-08-18T10:54:22;4.57;;;3.70;;
45688;SDS011;31400;48.132;20.872;2022-08-18T10:57:04;9.15;;;4.20;;
45688;SDS011;31400;48.132;20.872;2022-08-18T11:00:18;5.80;;;3.53;;
45688;SDS011;31400;48.132;20.872;2022-08-18T11:05:10;8.52;;;4.00;;
45688;SDS011;31400;48.132;20.872;2022-08-18T11:07:37;5.13;;;3.92;;
45688;SDS011;31400;48.132;20.872;2022-08-18T11:10:14;8.27;;;4.15;;
45688;SDS011;31400;48.132;20.872;2022-08-18T11:12:50;8.02;;;4.45;;
45688;SDS011;31400;48.132;20.872;2022-08-18T11:20:35;6.95;;;3.83;;
45688;SDS011;31400;48.132;20.872;2022-08-18T11:23:03;7.30;;;3.65;;
45688;SDS011;31400;48.132;20.872;2022-08-18T11:25:38;7.85;;;3.90;;
45688;SDS011;31400;48.132;20.872;2022-08-18T11:28:19;6.38;;;3.95;;
45688;SDS011;31400;48.132;20.872;2022-08-18T11:30:47;6.15;;;3.58;;
45688;SDS011;31400;48.132;20.872;2022-08-18T11:33:16;8.27;;;3.85;;
45688;SDS011;31400;48.132;20.872;2022-08-18T11:35:52;5.22;;;4.47;;
45688;SDS011;31400;48.132;20.872;2022-08-18T11:38:22;6.28;;;4.20;;
45688;SDS011;31400;48.132;20.872;2022-08-18T11:40:49;8.85;;;4.20;;
45688;SDS011;31400;48.132;20.872;2022-08-18T11:58:40;7.93;;;3.83;;
45688;SDS011;31400;48.132;20.872;2022-08-18T12:01:08;10.23;;;4.38;;
45688;SDS011;31400;48.132;20.872;2022-08-18T12:03:36;8.77;;;3.88;;
45688;SDS011;31400;48.132;20.872;2022-08-18T12:06:10;4.55;;;3.28;;
45688;SDS011;31400;48.132;20.872;2022-08-18T12:08:50;7.47;;;4.13;;
45688;SDS011;31400;48.132;20.872;2022-08-18T12:11:48;6.50;;;4.00;;
45688;SDS011;31400;48.132;20.872;2022-08-18T12:14:08;6.00;;;4.78;;
45688;SDS011;31400;48.132;20.872;2022-08-18T12:16:35;8.05;;;4.10;;
45688;SDS011;31400;48.132;20.872;2022-08-18T12:19:02;7.63;;;4.25;;
45688;SDS011;31400;48.132;20.872;2022-08-18T12:21:30;7.97;;;3.50;;
45688;SDS011;31400;48.132;20.872;2022-08-18T12:23:56;16.27;;;4.38;;
45688;SDS011;31400;48.132;20.872;2022-08-18T12:26:22;10.55;;;4.28;;
45688;SDS011;31400;48.132;20.872;2022-08-18T12:28:48;4.90;;;3.92;;
45688;SDS011;31400;48.132;20.872;2022-08-18T12:31:14;5.85;;;3.38;;
45688;SDS011;31400;48.132;20.872;2022-08-18T12:33:40;7.82;;;3.75;;
45688;SDS011;31400;48.132;20.872;2022-08-18T12:36:06;6.20;;;4.03;;
45688;SDS011;31400;48.132;20.872;2022-08-18T12:38:33;6.05;;;3.95;;
45688;SDS011;31400;48.132;20.872;2022-08-18T12:40:59;5.43;;;3.35;;
45688;SDS011;31400;48.132;20.872;2022-08-18T12:43:26;8.52;;;3.65;;
45688;SDS011;31400;48.132;20.872;2022-08-18T12:45:52;4.65;;;3.33;;
45688;SDS011;31400;48.132;20.872;2022-08-18T12:48:18;8.45;;;2.90;;
45688;SDS011;31400;48.132;20.872;2022-08-18T12:50:44;7.22;;;3.65;;
45688;SDS011;31400;48.132;20.872;2022-08-18T12:53:10;6.85;;;3.67;;
45688;SDS011;31400;48.132;20.872;2022-08-18T12:55:39;4.60;;;3.30;;
45688;SDS011;31400;48.132;20.872;2022-08-18T12:58:05;6.72;;;3.42;;
45688;SDS011;31400;48.132;20.872;2022-08-18T13:00:32;4.88;;;3.13;;
45688;SDS011;31400;48.132;20.872;2022-08-18T13:02:58;5.95;;;3.85;;
45688;SDS011;31400;48.132;20.872;2022-08-18T13:05:25;9.00;;;4.60;;
45688;SDS011;31400;48.132;20.872;2022-08-18T13:07:52;6.28;;;3.75;;
45688;SDS011;31400;48.132;20.872;2022-08-18T13:10:18;5.45;;;3.80;;
45688;SDS011;31400;48.132;20.872;2022-08-18T13:12:44;5.35;;;4.05;;
45688;SDS011;31400;48.132;20.872;2022-08-18T13:15:10;4.60;;;3.08;;
45688;SDS011;31400;48.132;20.872;2022-08-18T13:17:37;6.68;;;4.60;;
45688;SDS011;31400;48.132;20.872;2022-08-18T13:20:04;5.97;;;3.28;;
45688;SDS011;31400;48.132;20.872;2022-08-18T13:22:33;8.48;;;3.92;;
45688;SDS011;31400;48.132;20.872;2022-08-18T13:25:00;5.90;;;3.70;;
45688;SDS011;31400;48.132;20.872;2022-08-18T13:27:26;5.15;;;3.30;;
45688;SDS011;31400;48.132;20.872;2022-08-18T13:29:52;7.45;;;3.88;;
45688;SDS011;31400;48.132;20.872;2022-08-18T13:32:20;6.68;;;3.75;;
45688;SDS011;31400;48.132;20.872;2022-08-18T13:34:46;5.85;;;4.18;;
45688;SDS011;31400;48.132;20.872;2022-08-18T13:37:12;6.82;;;3.85;;
45688;SDS011;31400;48.132;20.872;2022-08-18T13:39:39;6.80;;;3.83;;
45688;SDS011;31400;48.132;20.872;2022-08-18T13:42:05;6.03;;;4.00;;
45688;SDS011;31400;48.132;20.872;2022-08-18T13:44:34;8.77;;;5.50;;
45688;SDS011;31400;48.132;20.872;2022-08-18T13:47:00;4.18;;;3.30;;
45688;SDS011;31400;48.132;20.872;2022-08-18T13:49:27;8.85;;;4.35;;
45688;SDS011;31400;48.132;20.872;2022-08-18T13:51:53;6.95;;;4.40;;
45688;SDS011;31400;48.132;20.872;2022-08-18T13:54:30;8.75;;;3.25;;
45688;SDS011;31400;48.132;20.872;2022-08-18T13:56:58;9.53;;;4.00;;
45688;SDS011;31400;48.132;20.872;2022-08-18T13:59:24;5.70;;;4.13;;
45688;SDS011;31400;48.132;20.872;2022-08-18T14:01:55;6.72;;;3.50;;
45688;SDS011;31400;48.132;20.872;2022-08-18T14:04:22;6.32;;;3.78;;
45688;SDS011;31400;48.132;20.872;2022-08-18T14:06:50;5.05;;;3.70;;
45688;SDS011;31400;48.132;20.872;2022-08-18T14:09:17;5.50;;;4.07;;
45688;SDS011;31400;48.132;20.872;2022-08-18T14:11:43;7.10;;;3.72;;
45688;SDS011;31400;48.132;20.872;2022-08-18T14:14:11;7.22;;;4.55;;
45688;SDS011;31400;48.132;20.872;2022-08-18T14:16:38;6.65;;;4.07;;
45688;SDS011;31400;48.132;20.872;2022-08-18T14:19:04;6.90;;;4.32;;
45688;SDS011;31400;48.132;20.872;2022-08-18T14:21:51;8.77;;;4.78;;
45688;SDS011;31400;48.132;20.872;2022-08-18T14:24:36;5.32;;;3.78;;
45688;SDS011;31400;48.132;20.872;2022-08-18T14:27:25;6.93;;;4.38;;
45688;SDS011;31400;48.132;20.872;2022-08-18T14:29:53;5.43;;;3.85;;
45688;SDS011;31400;48.132;20.872;2022-08-18T14:32:20;5.88;;;4.40;;
45688;SDS011;31400;48.132;20.872;2022-08-18T14:34:46;4.57;;;3.67;;
45688;SDS011;31400;48.132;20.872;2022-08-18T14:37:12;7.43;;;4.18;;
45688;SDS011;31400;48.132;20.872;2022-08-18T14:39:38;6.07;;;3.80;;
45688;SDS011;31400;48.132;20.872;2022-08-18T14:42:07;8.05;;;4.70;;
45688;SDS011;31400;48.132;20.872;2022-08-18T14:44:33;8.73;;;4.22;;
45688;SDS011;31400;48.132;20.872;2022-08-18T14:46:59;6.97;;;4.18;;
45688;SDS011;31400;48.132;20.872;2022-08-18T14:49:26;7.47;;;3.97;;
45688;SDS011;31400;48.132;20.872;2022-08-18T14:51:56;6.05;;;3.95;;
45688;SDS011;31400;48.132;20.872;2022-08-18T14:54:22;5.90;;;3.60;;
45688;SDS011;31400;48.132;20.872;2022-08-18T14:56:48;6.72;;;3.83;;
45688;SDS011;31400;48.132;20.872;2022-08-18T14:59:14;7.53;;;4.18;;
45688;SDS011;31400;48.132;20.872;2022-08-18T15:01:40;7.30;;;3.65;;
45688;SDS011;31400;48.132;20.872;2022-08-18T15:04:07;5.97;;;4.00;;
45688;SDS011;31400;48.132;20.872;2022-08-18T15:06:35;11.75;;;4.38;;
45688;SDS011;31400;48.132;20.872;2022-08-18T15:09:01;7.47;;;3.65;;
45688;SDS011;31400;48.132;20.872;2022-08-18T15:11:27;6.35;;;4.13;;
45688;SDS011;31400;48.132;20.872;2022-08-18T15:13:53;6.00;;;4.00;;
45688;SDS011;31400;48.132;20.872;2022-08-18T15:16:20;6.95;;;3.58;;
45688;SDS011;31400;48.132;20.872;2022-08-18T15:18:47;7.05;;;3.78;;
45688;SDS011;31400;48.132;20.872;2022-08-18T15:21:13;6.90;;;3.75;;
45688;SDS011;31400;48.132;20.872;2022-08-18T15:23:58;10.13;;;4.18;;
45688;SDS011;31400;48.132;20.872;2022-08-18T15:26:43;10.32;;;4.13;;
45688;SDS011;31400;48.132;20.872;2022-08-18T15:29:10;5.38;;;3.90;;
45688;SDS011;31400;48.132;20.872;2022-08-18T15:31:36;4.68;;;3.60;;
45688;SDS011;31400;48.132;20.872;2022-08-18T15:34:02;9.60;;;4.68;;
45688;SDS011;31400;48.132;20.872;2022-08-18T15:36:29;9.60;;;4.60;;
45688;SDS011;31400;48.132;20.872;2022-08-18T15:38:59;6.78;;;4.03;;
45688;SDS011;31400;48.132;20.872;2022-08-18T15:41:35;5.43;;;4.22;;
45688;SDS011;31400;48.132;20.872;2022-08-18T15:44:02;5.10;;;3.85;;
45688;SDS011;31400;48.132;20.872;2022-08-18T15:46:32;5.80;;;3.70;;
45688;SDS011;31400;48.132;20.872;2022-08-18T15:48:59;8.13;;;4.35;;
45688;SDS011;31400;48.132;20.872;2022-08-18T15:51:26;5.65;;;3.67;;
45688;SDS011;31400;48.132;20.872;2022-08-18T15:53:52;5.90;;;3.85;;
45688;SDS011;31400;48.132;20.872;2022-08-18T15:56:19;6.47;;;3.92;;
45688;SDS011;31400;48.132;20.872;2022-08-18T15:58:46;6.45;;;4.15;;
45688;SDS011;31400;48.132;20.872;2022-08-18T16:01:12;9.52;;;4.50;;
45688;SDS011;31400;48.132;20.872;2022-08-18T16:03:39;5.88;;;3.90;;
45688;SDS011;31400;48.132;20.872;2022-08-18T16:06:06;6.60;;;3.47;;
45688;SDS011;31400;48.132;20.872;2022-08-18T16:08:36;9.45;;;4.70;;
45688;SDS011;31400;48.132;20.872;2022-08-18T16:11:07;11.10;;;4.50;;
45688;SDS011;31400;48.132;20.872;2022-08-18T16:13:33;8.10;;;4.32;;
45688;SDS011;31400;48.132;20.872;2022-08-18T16:15:59;6.50;;;4.30;;
45688;SDS011;31400;48.132;20.872;2022-08-18T16:18:25;10.77;;;4.18;;
45688;SDS011;31400;48.132;20.872;2022-08-18T16:20:52;5.15;;;3.83;;
45688;SDS011;31400;48.132;20.872;2022-08-18T16:23:18;7.00;;;4.13;;
45688;SDS011;31400;48.132;20.872;2022-08-18T16:25:44;6.97;;;4.07;;
45688;SDS011;31400;48.132;20.872;2022-08-18T16:28:10;6.55;;;4.38;;
45688;SDS011;31400;48.132;20.872;2022-08-18T16:30:37;6.97;;;4.10;;
45688;SDS011;31400;48.132;20.872;2022-08-18T16:33:04;6.88;;;3.72;;
45688;SDS011;31400;48.132;20.872;2022-08-18T16:35:31;5.85;;;4.18;;
45688;SDS011;31400;48.132;20.872;2022-08-18T16:38:01;6.00;;;3.53;;
45688;SDS011;31400;48.132;20.872;2022-08-18T16:40:28;6.47;;;3.88;;
45688;SDS011;31400;48.132;20.872;2022-08-18T16:42:54;7.15;;;3.67;;
45688;SDS011;31400;48.132;20.872;2022-08-18T16:45:20;8.40;;;4.25;;
45688;SDS011;31400;48.132;20.872;2022-08-18T16:47:46;5.18;;;3.85;;
45688;SDS011;31400;48.132;20.872;2022-08-18T16:50:14;6.32;;;3.97;;
45688;SDS011;31400;48.132;20.872;2022-08-18T16:52:44;12.50;;;4.22;;
45688;SDS011;31400;48.132;20.872;2022-08-18T16:55:11;6.25;;;4.63;;
45688;SDS011;31400;48.132;20.872;2022-08-18T16:57:38;8.52;;;4.60;;
45688;SDS011;31400;48.132;20.872;2022-08-18T17:00:24;7.57;;;4.32;;
45688;SDS011;31400;48.132;20.872;2022-08-18T17:03:08;5.97;;;3.90;;
45688;SDS011;31400;48.132;20.872;2022-08-18T17:06:04;9.07;;;4.10;;
45688;SDS011;31400;48.132;20.872;2022-08-18T17:08:30;4.93;;;3.50;;
45688;SDS011;31400;48.132;20.872;2022-08-18T17:11:03;8.25;;;3.70;;
45688;SDS011;31400;48.132;20.872;2022-08-18T17:13:30;5.82;;;3.72;;
45688;SDS011;31400;48.132;20.872;2022-08-18T17:15:56;4.88;;;3.60;;
45688;SDS011;31400;48.132;20.872;2022-08-18T17:18:23;5.63;;;4.07;;
45688;SDS011;31400;48.132;20.872;2022-08-18T17:20:49;7.03;;;4.10;;